createdAt,value
2022-12-28T00:01:17.822Z,3.30
2022-12-28T00:03:44.895Z,3.30
2022-12-28T00:06:12.121Z,3.30
2022-12-28T00:08:39.276Z,3.30
2022-12-28T00:11:11.312Z,3.30
2022-12-28T00:13:41.128Z,3.30
2022-12-28T00:16:08.956Z,3.20
2022-12-28T00:18:36.255Z,3.20
2022-12-28T00:21:03.657Z,3.20
2022-12-28T00:23:30.785Z,3.10
2022-12-28T00:26:05.408Z,3.00
2022-12-28T00:28:32.157Z,3.00
2022-12-28T00:30:58.805Z,2.90
2022-12-28T00:33:25.448Z,2.80
2022-12-28T00:35:56.017Z,2.80
2022-12-28T00:38:22.753Z,2.70
2022-12-28T00:40:49.435Z,2.70
2022-12-28T00:43:16.152Z,2.80
2022-12-28T00:45:46.683Z,2.80
2022-12-28T00:48:13.899Z,2.70
2022-12-28T00:50:40.786Z,2.70
2022-12-28T00:53:10.056Z,2.70
2022-12-28T00:55:37.014Z,2.70
2022-12-28T00:58:06.120Z,2.80
2022-12-28T01:00:33.134Z,2.90
2022-12-28T01:02:59.973Z,3.00
2022-12-28T01:05:26.782Z,3.00
2022-12-28T01:07:53.445Z,3.10
2022-12-28T01:10:20.169Z,3.20
2022-12-28T01:12:46.826Z,3.20
2022-12-28T01:15:13.590Z,3.30
2022-12-28T01:17:40.942Z,3.30
2022-12-28T01:20:08.293Z,3.40
2022-12-28T01:22:34.997Z,3.40
2022-12-28T01:25:01.649Z,3.50
2022-12-28T01:27:28.563Z,3.60
2022-12-28T01:29:55.250Z,3.60
2022-12-28T01:32:21.952Z,3.50
2022-12-28T01:34:49.332Z,3.60
2022-12-28T01:37:16.118Z,3.60
2022-12-28T01:39:42.749Z,3.60
2022-12-28T01:42:16.710Z,3.60
2022-12-28T01:44:47.473Z,3.60
2022-12-28T01:47:25.226Z,3.60
2022-12-28T01:50:00.564Z,3.60
2022-12-28T01:52:30.348Z,3.60
2022-12-28T01:55:03.217Z,3.60
2022-12-28T01:57:31.283Z,3.60
2022-12-28T02:00:01.462Z,3.70
2022-12-28T02:02:29.955Z,3.60
2022-12-28T02:04:57.741Z,3.60
2022-12-28T02:07:43.379Z,3.60
2022-12-28T02:10:43.137Z,3.50
2022-12-28T02:12:58.291Z,3.50
2022-12-28T02:15:27.349Z,3.50
2022-12-28T02:17:54.015Z,3.40
2022-12-28T02:20:20.950Z,3.50
2022-12-28T02:23:04.120Z,3.40
2022-12-28T02:25:43.485Z,3.40
2022-12-28T02:28:23.167Z,3.30
2022-12-28T02:30:59.640Z,3.30
2022-12-28T02:33:32.852Z,3.30
2022-12-28T02:36:03.295Z,3.40
2022-12-28T02:38:32.987Z,3.40
2022-12-28T02:41:01.608Z,3.50
2022-12-28T02:43:28.337Z,3.50
2022-12-28T02:46:13.884Z,3.50
2022-12-28T02:49:05.152Z,3.50
2022-12-28T02:51:45.147Z,3.40
2022-12-28T02:54:41.223Z,3.40
2022-12-28T02:57:18.679Z,3.50
2022-12-28T02:59:58.121Z,3.50
2022-12-28T03:02:24.847Z,3.50
2022-12-28T03:04:58.205Z,3.50
2022-12-28T03:08:02.292Z,3.50
2022-12-28T03:10:50.148Z,3.40
2022-12-28T03:13:41.035Z,3.40
2022-12-28T03:16:10.853Z,3.40
2022-12-28T03:18:58.680Z,3.30
2022-12-28T03:21:46.833Z,3.40
2022-12-28T03:24:33.999Z,3.30
2022-12-28T03:27:22.151Z,3.20
2022-12-28T03:30:26.899Z,3.20
2022-12-28T03:32:54.011Z,3.20
2022-12-28T03:35:22.543Z,3.20
2022-12-28T03:38:01.465Z,3.20
2022-12-28T03:40:32.439Z,3.10
2022-12-28T03:43:21.627Z,3.10
2022-12-28T03:46:02.432Z,3.10
2022-12-28T03:48:31.543Z,3.20
2022-12-28T03:50:58.282Z,3.20
2022-12-28T03:53:29.147Z,3.20
2022-12-28T03:56:07.297Z,3.20
2022-12-28T03:58:34.717Z,3.20
2022-12-28T04:01:03.950Z,3.20
2022-12-28T04:03:30.866Z,3.20
2022-12-28T04:05:57.899Z,3.20
2022-12-28T04:08:24.756Z,3.20
2022-12-28T04:10:52.781Z,3.30
2022-12-28T04:13:19.625Z,3.30
2022-12-28T04:15:56.794Z,3.30
2022-12-28T04:18:23.618Z,3.40
2022-12-28T04:20:50.300Z,3.40
2022-12-28T04:23:17.540Z,3.50
2022-12-28T04:25:44.719Z,3.50
2022-12-28T04:28:11.407Z,3.50
2022-12-28T04:30:58.538Z,3.50
2022-12-28T04:33:25.535Z,3.60
2022-12-28T04:35:52.935Z,3.60
2022-12-28T04:38:20.363Z,3.70
2022-12-28T04:40:47.592Z,3.80
2022-12-28T04:43:14.379Z,3.80
2022-12-28T04:45:41.034Z,3.80
2022-12-28T04:48:07.776Z,3.80
2022-12-28T04:50:36.398Z,3.80
2022-12-28T04:53:03.044Z,3.90
2022-12-28T04:55:32.470Z,3.90
2022-12-28T04:58:00.763Z,3.90
2022-12-28T05:00:27.502Z,3.90
2022-12-28T05:02:54.380Z,3.90
2022-12-28T05:05:21.055Z,3.90
2022-12-28T05:07:47.681Z,4.00
2022-12-28T05:10:14.453Z,4.00
2022-12-28T05:12:41.132Z,3.90
2022-12-28T05:15:08.245Z,3.90
2022-12-28T05:17:34.887Z,3.90
2022-12-28T05:20:02.068Z,4.00
2022-12-28T05:22:28.935Z,4.00
2022-12-28T05:24:55.734Z,3.90
2022-12-28T05:27:22.400Z,4.00
2022-12-28T05:29:49.127Z,4.00
2022-12-28T05:32:15.896Z,4.00
2022-12-28T05:34:42.634Z,4.10
2022-12-28T05:37:09.285Z,4.20
2022-12-28T05:39:35.935Z,4.20
2022-12-28T05:42:02.750Z,4.20
2022-12-28T05:44:29.585Z,4.20
2022-12-28T05:46:56.433Z,4.30
2022-12-28T05:49:23.203Z,4.20
2022-12-28T05:51:51.943Z,4.40
2022-12-28T05:54:18.758Z,4.40
2022-12-28T05:56:45.541Z,4.40
2022-12-28T05:59:13.644Z,4.50
2022-12-28T06:01:41.251Z,4.50
2022-12-28T06:04:12.007Z,4.50
2022-12-28T06:06:38.930Z,4.60
2022-12-28T06:09:06.031Z,4.60
2022-12-28T06:11:32.761Z,4.60
2022-12-28T06:13:59.998Z,4.60
2022-12-28T06:16:28.366Z,4.60
2022-12-28T06:18:55.439Z,4.60
2022-12-28T06:21:23.624Z,4.60
2022-12-28T06:23:50.878Z,4.60
2022-12-28T06:26:19.603Z,4.70
2022-12-28T06:28:46.868Z,4.70
2022-12-28T06:31:14.942Z,4.70
2022-12-28T06:33:41.978Z,4.70
2022-12-28T06:36:19.436Z,4.70
2022-12-28T06:38:47.729Z,4.70
2022-12-28T06:41:15.369Z,4.80
2022-12-28T06:43:43.054Z,4.80
2022-12-28T06:46:10.032Z,4.80
2022-12-28T06:48:36.775Z,4.80
2022-12-28T06:51:04.763Z,4.70
2022-12-28T06:53:33.642Z,4.80
2022-12-28T06:56:07.390Z,4.70
2022-12-28T06:58:34.112Z,4.70
2022-12-28T07:01:08.421Z,4.70
2022-12-28T07:03:35.526Z,4.60
2022-12-28T07:06:02.940Z,4.60
2022-12-28T07:08:30.471Z,4.60
2022-12-28T07:11:01.965Z,4.60
2022-12-28T07:13:28.666Z,4.70
2022-12-28T07:15:55.374Z,4.70
2022-12-28T07:18:22.008Z,4.70
2022-12-28T07:20:49.011Z,4.70
2022-12-28T07:23:15.700Z,4.80
2022-12-28T07:25:43.499Z,4.80
2022-12-28T07:28:10.163Z,4.80
2022-12-28T07:30:36.864Z,4.80
2022-12-28T07:33:04.187Z,4.90
2022-12-28T07:35:30.886Z,4.90
2022-12-28T07:37:57.669Z,4.90
2022-12-28T07:40:24.325Z,4.90
2022-12-28T07:42:50.981Z,4.90
2022-12-28T07:45:17.592Z,5.00
2022-12-28T07:47:44.345Z,5.00
2022-12-28T07:50:11.019Z,5.10
2022-12-28T07:52:37.749Z,5.20
2022-12-28T07:55:04.649Z,5.20
2022-12-28T07:57:31.745Z,5.20
2022-12-28T07:59:58.555Z,5.20
2022-12-28T08:02:25.253Z,5.20
2022-12-28T08:04:52.374Z,5.20
2022-12-28T08:07:19.476Z,5.30
2022-12-28T08:09:46.176Z,5.30
2022-12-28T08:12:12.840Z,5.40
2022-12-28T08:14:39.487Z,5.50
2022-12-28T08:17:06.328Z,5.50
2022-12-28T08:19:33.098Z,5.60
2022-12-28T08:21:59.713Z,5.60
2022-12-28T08:24:26.364Z,5.70
2022-12-28T08:26:53.351Z,5.70
2022-12-28T08:29:21.361Z,5.80
2022-12-28T08:31:48.908Z,6.00
2022-12-28T08:34:19.136Z,6.10
2022-12-28T08:36:46.046Z,6.20
2022-12-28T08:39:12.665Z,6.40
2022-12-28T08:41:39.324Z,6.50
2022-12-28T08:44:06.260Z,6.60
2022-12-28T08:46:34.410Z,6.60
2022-12-28T08:49:01.488Z,6.70
2022-12-28T08:51:31.023Z,6.70
2022-12-28T08:53:57.708Z,6.80
2022-12-28T08:56:32.788Z,6.90
2022-12-28T08:58:59.976Z,7.00
2022-12-28T09:01:28.334Z,7.00
2022-12-28T09:03:56.707Z,7.00
2022-12-28T09:06:25.027Z,7.00
2022-12-28T09:09:08.012Z,7.00
2022-12-28T09:11:35.737Z,7.00
2022-12-28T09:14:03.074Z,7.00
2022-12-28T09:16:29.925Z,7.00
2022-12-28T09:18:58.088Z,7.00
2022-12-28T09:21:26.018Z,6.90
2022-12-28T09:23:52.719Z,7.00
2022-12-28T09:26:20.570Z,7.00
2022-12-28T09:28:51.768Z,7.10
2022-12-28T09:31:19.131Z,7.10
2022-12-28T09:36:47.908Z,7.20
2022-12-28T09:39:19.387Z,7.40
2022-12-28T09:41:55.175Z,7.40
2022-12-28T09:44:46.420Z,7.40
2022-12-28T09:47:13.128Z,7.50
2022-12-28T09:49:49.641Z,7.50
2022-12-28T09:52:24.580Z,7.60
2022-12-28T09:54:51.305Z,7.60
2022-12-28T09:57:18.964Z,7.80
2022-12-28T10:00:05.297Z,7.80
2022-12-28T10:02:37.059Z,7.80
2022-12-28T10:05:04.103Z,7.70
2022-12-28T10:07:31.457Z,7.70
2022-12-28T10:09:58.406Z,7.70
2022-12-28T10:12:25.221Z,7.70
2022-12-28T10:14:53.187Z,7.70
2022-12-28T10:17:22.767Z,7.70
2022-12-28T10:19:49.479Z,7.70
2022-12-28T10:22:18.677Z,7.70
2022-12-28T10:24:45.727Z,7.80
2022-12-28T10:27:22.859Z,7.70
2022-12-28T10:29:53.304Z,7.70
2022-12-28T10:32:20.293Z,7.60
2022-12-28T10:34:56.656Z,7.70
2022-12-28T10:37:23.970Z,7.70
2022-12-28T10:39:55.728Z,7.70
2022-12-28T10:42:25.466Z,7.80
2022-12-28T10:44:52.728Z,7.80
2022-12-28T10:47:30.546Z,7.80
2022-12-28T10:52:55.072Z,7.70
2022-12-28T10:55:29.584Z,7.60
2022-12-28T10:58:28.033Z,7.60
2022-12-28T11:00:50.363Z,7.50
2022-12-28T11:03:23.592Z,7.30
2022-12-28T11:05:57.340Z,7.10
2022-12-28T11:08:24.300Z,7.00
2022-12-28T11:10:57.025Z,7.00
2022-12-28T11:13:23.862Z,7.00
2022-12-28T11:15:50.626Z,7.00
2022-12-28T11:18:18.486Z,7.10
2022-12-28T11:20:46.752Z,7.20
2022-12-28T11:23:20.464Z,7.30
2022-12-28T11:25:47.511Z,7.50
2022-12-28T11:28:16.258Z,7.60
2022-12-28T11:30:43.867Z,7.70
2022-12-28T11:33:26.112Z,7.80
2022-12-28T11:35:59.436Z,7.90
2022-12-28T11:38:36.822Z,8.00
2022-12-28T11:41:03.546Z,8.10
2022-12-28T11:43:30.456Z,8.30
2022-12-28T11:46:17.453Z,8.40
2022-12-28T11:48:44.168Z,8.40
2022-12-28T11:51:18.384Z,8.40
2022-12-28T11:53:45.085Z,8.40
2022-12-28T11:56:13.030Z,8.30
2022-12-28T11:58:39.647Z,8.20
2022-12-28T12:01:08.913Z,8.20
2022-12-28T12:03:54.277Z,8.10
2022-12-28T12:06:25.454Z,8.10
2022-12-28T12:08:55.740Z,8.10
2022-12-28T12:11:25.433Z,8.10
2022-12-28T12:13:53.505Z,8.00
2022-12-28T12:16:35.838Z,8.00
2022-12-28T12:19:03.704Z,8.10
2022-12-28T12:21:53.127Z,8.00
2022-12-28T12:24:26.805Z,8.00
2022-12-28T12:26:58.691Z,8.00
2022-12-28T12:29:36.241Z,7.90
2022-12-28T12:32:05.664Z,8.00
2022-12-28T12:35:07.952Z,8.00
2022-12-28T12:37:44.022Z,7.90
2022-12-28T12:40:18.390Z,8.10
2022-12-28T12:43:04.059Z,8.10
2022-12-28T12:45:39.615Z,8.10
2022-12-28T12:48:18.672Z,8.20
2022-12-28T12:50:57.647Z,8.10
2022-12-28T12:53:48.250Z,8.00
2022-12-28T12:56:28.614Z,7.90
2022-12-28T12:59:15.438Z,7.90
2022-12-28T13:01:54.518Z,7.80
2022-12-28T13:04:25.930Z,7.90
2022-12-28T13:06:55.845Z,7.90
2022-12-28T13:09:24.056Z,7.90
2022-12-28T13:11:50.781Z,7.90
2022-12-28T13:14:19.900Z,7.90
2022-12-28T13:16:47.627Z,7.90
2022-12-28T13:19:19.318Z,7.90
2022-12-28T13:21:49.085Z,7.90
2022-12-28T13:24:19.664Z,7.90
2022-12-28T13:26:46.377Z,7.90
2022-12-28T13:29:15.440Z,7.90
2022-12-28T13:31:42.327Z,7.90
2022-12-28T13:34:25.891Z,7.90
2022-12-28T13:36:54.368Z,7.80
2022-12-28T13:39:22.091Z,7.80
2022-12-28T13:41:53.430Z,7.80
2022-12-28T13:44:39.689Z,7.90
2022-12-28T13:47:06.329Z,7.90
2022-12-28T13:49:36.529Z,7.90
2022-12-28T13:52:06.802Z,7.80
2022-12-28T13:54:33.730Z,7.80
2022-12-28T13:57:20.897Z,7.70
2022-12-28T13:59:47.571Z,7.70
2022-12-28T14:02:16.796Z,7.70
2022-12-28T14:04:52.714Z,7.70
2022-12-28T14:07:20.104Z,7.60
2022-12-28T14:09:47.537Z,7.60
2022-12-28T14:12:14.538Z,7.60
2022-12-28T14:14:42.040Z,7.60
2022-12-28T14:17:09.760Z,7.60
2022-12-28T14:19:36.638Z,7.50
2022-12-28T14:22:12.120Z,7.50
2022-12-28T14:24:58.038Z,7.40
2022-12-28T14:27:24.768Z,7.40
2022-12-28T14:29:51.399Z,7.40
2022-12-28T14:32:18.499Z,7.40
2022-12-28T14:34:46.818Z,7.40
2022-12-28T14:37:42.775Z,7.40
2022-12-28T14:40:16.085Z,7.40
2022-12-28T14:42:48.853Z,7.40
2022-12-28T14:46:08.032Z,7.50
2022-12-28T14:48:40.364Z,7.50
2022-12-28T14:51:17.350Z,7.50
2022-12-28T14:53:44.976Z,7.50
2022-12-28T14:56:15.185Z,7.50
2022-12-28T14:58:51.138Z,7.50
2022-12-28T15:01:18.631Z,7.50
2022-12-28T15:03:55.824Z,7.50
2022-12-28T15:06:25.875Z,7.50
2022-12-28T15:08:53.502Z,7.50
2022-12-28T15:11:21.296Z,7.50
2022-12-28T15:13:48.463Z,7.50
2022-12-28T15:16:17.837Z,7.50
2022-12-28T15:18:44.975Z,7.50
2022-12-28T15:21:12.449Z,7.50
2022-12-28T15:23:40.318Z,7.50
2022-12-28T15:26:10.832Z,7.50
2022-12-28T15:28:38.115Z,7.50
2022-12-28T15:31:06.091Z,7.50
2022-12-28T15:33:34.596Z,7.50
2022-12-28T15:36:02.669Z,7.50
2022-12-28T15:38:29.387Z,7.50
2022-12-28T15:40:56.385Z,7.60
2022-12-28T15:43:23.085Z,7.60
2022-12-28T15:45:56.352Z,7.60
2022-12-28T15:48:23.145Z,7.60
2022-12-28T15:50:49.801Z,7.50
2022-12-28T15:53:17.133Z,7.50
2022-12-28T15:55:43.965Z,7.50
2022-12-28T15:58:10.878Z,7.50
2022-12-28T16:00:40.470Z,7.50
2022-12-28T16:03:11.082Z,7.40
2022-12-28T16:05:37.760Z,7.50
2022-12-28T16:08:04.511Z,7.50
2022-12-28T16:10:31.151Z,7.40
2022-12-28T16:12:57.803Z,7.40
2022-12-28T16:15:24.477Z,7.40
2022-12-28T16:17:57.340Z,7.40
2022-12-28T16:20:24.402Z,7.40
2022-12-28T16:22:53.851Z,7.30
2022-12-28T16:25:20.631Z,7.30
2022-12-28T16:27:47.243Z,7.30
2022-12-28T16:30:14.008Z,7.40
2022-12-28T16:32:40.697Z,7.40
2022-12-28T16:35:08.113Z,7.40
2022-12-28T16:37:34.754Z,7.40
2022-12-28T16:40:01.525Z,7.40
2022-12-28T16:42:28.346Z,7.40
2022-12-28T16:44:55.060Z,7.40
2022-12-28T16:47:21.719Z,7.40
2022-12-28T16:49:48.399Z,7.50
2022-12-28T16:52:15.159Z,7.50
2022-12-28T16:54:41.852Z,7.50
2022-12-28T16:57:08.472Z,7.40
2022-12-28T16:59:35.169Z,7.40
2022-12-28T17:02:02.237Z,7.40
2022-12-28T17:04:29.163Z,7.40
2022-12-28T17:06:56.011Z,7.40
2022-12-28T17:09:22.868Z,7.40
2022-12-28T17:11:50.046Z,7.40
2022-12-28T17:14:29.100Z,7.40
2022-12-28T17:17:02.238Z,7.40
2022-12-28T17:19:29.377Z,7.40
2022-12-28T17:21:56.042Z,7.30
2022-12-28T17:24:22.808Z,7.30
2022-12-28T17:26:50.245Z,7.30
2022-12-28T17:29:17.144Z,7.20
2022-12-28T17:31:43.825Z,7.20
2022-12-28T17:34:10.833Z,7.20
2022-12-28T17:36:37.697Z,7.20
2022-12-28T17:39:04.690Z,7.20
2022-12-28T17:41:31.643Z,7.20
2022-12-28T17:43:59.095Z,7.20
2022-12-28T17:46:27.038Z,7.20
2022-12-28T17:48:54.747Z,7.20
2022-12-28T17:51:21.572Z,7.10
2022-12-28T17:53:49.056Z,7.20
2022-12-28T17:56:16.078Z,7.20
2022-12-28T17:58:43.471Z,7.30
2022-12-28T18:01:11.958Z,7.30
2022-12-28T18:03:39.008Z,7.30
2022-12-28T18:06:06.129Z,7.30
2022-12-28T18:08:33.241Z,7.30
2022-12-28T18:11:00.020Z,7.30
2022-12-28T18:13:26.696Z,7.30
2022-12-28T18:15:53.708Z,7.30
2022-12-28T18:18:20.522Z,7.30
2022-12-28T18:20:55.758Z,7.30
2022-12-28T18:23:22.403Z,7.30
2022-12-28T18:25:49.090Z,7.30
2022-12-28T18:28:15.739Z,7.30
2022-12-28T18:30:43.659Z,7.30
2022-12-28T18:33:10.531Z,7.20
2022-12-28T18:35:37.311Z,7.30
2022-12-28T18:38:04.046Z,7.20
2022-12-28T18:40:30.757Z,7.20
2022-12-28T18:42:58.285Z,7.20
2022-12-28T18:45:25.017Z,7.20
2022-12-28T18:47:51.666Z,7.20
2022-12-28T18:50:18.386Z,7.20
2022-12-28T18:52:45.038Z,7.20
2022-12-28T18:55:11.691Z,7.30
2022-12-28T18:57:38.358Z,7.30
2022-12-28T19:00:05.409Z,7.40
2022-12-28T19:02:32.322Z,7.40
2022-12-28T19:04:59.224Z,7.50
2022-12-28T19:07:26.060Z,7.50
2022-12-28T19:10:13.116Z,7.50
2022-12-28T19:12:40.723Z,7.60
2022-12-28T19:15:07.544Z,7.60
2022-12-28T19:17:34.250Z,7.60
2022-12-28T19:20:00.906Z,7.60
2022-12-28T19:22:27.821Z,7.60
2022-12-28T19:24:54.532Z,7.60
2022-12-28T19:27:21.273Z,7.60
2022-12-28T19:29:50.574Z,7.70
2022-12-28T19:32:17.362Z,7.80
2022-12-28T19:34:44.208Z,7.80
2022-12-28T19:37:11.092Z,7.80
2022-12-28T19:39:39.069Z,7.80
2022-12-28T19:42:05.809Z,7.80
2022-12-28T19:44:32.713Z,7.80
2022-12-28T19:47:00.311Z,7.80
2022-12-28T19:49:27.060Z,7.80
2022-12-28T19:51:55.525Z,7.70
2022-12-28T19:54:22.398Z,7.70
2022-12-28T19:56:49.051Z,7.70
2022-12-28T19:59:15.683Z,7.70
2022-12-28T20:01:42.464Z,7.70
2022-12-28T20:04:16.287Z,7.70
2022-12-28T20:06:43.650Z,7.70
2022-12-28T20:09:11.462Z,7.70
2022-12-28T20:11:38.820Z,7.80
2022-12-28T20:14:08.070Z,7.90
2022-12-28T20:16:35.187Z,7.90
2022-12-28T20:19:02.071Z,7.90
2022-12-28T20:21:29.011Z,8.00
2022-12-28T20:23:55.788Z,8.00
2022-12-28T20:26:23.036Z,8.00
2022-12-28T20:28:50.266Z,8.00
2022-12-28T20:31:17.144Z,7.90
2022-12-28T20:33:44.237Z,7.80
2022-12-28T20:36:15.229Z,7.80
2022-12-28T20:38:42.001Z,7.70
2022-12-28T20:41:08.642Z,7.60
2022-12-28T20:43:36.054Z,7.60
2022-12-28T20:46:02.713Z,7.60
2022-12-28T20:48:29.489Z,7.60
2022-12-28T20:51:00.075Z,7.60
2022-12-28T20:53:27.765Z,7.60
2022-12-28T20:55:54.478Z,7.60
2022-12-28T20:58:21.674Z,7.60
2022-12-28T21:00:48.351Z,7.60
2022-12-28T21:03:15.026Z,7.60
2022-12-28T21:05:41.775Z,7.60
2022-12-28T21:08:08.393Z,7.60
2022-12-28T21:10:35.025Z,7.70
2022-12-28T21:13:01.831Z,7.70
2022-12-28T21:15:28.582Z,7.70
2022-12-28T21:17:55.251Z,7.70
2022-12-28T21:20:22.134Z,7.70
2022-12-28T21:22:50.270Z,7.70
2022-12-28T21:25:16.875Z,7.70
2022-12-28T21:27:43.528Z,7.70
2022-12-28T21:30:10.491Z,7.70
2022-12-28T21:32:37.224Z,7.80
2022-12-28T21:35:04.091Z,7.80
2022-12-28T21:37:37.058Z,7.80
2022-12-28T21:40:08.149Z,7.80
2022-12-28T21:42:35.257Z,7.80
2022-12-28T21:45:02.210Z,7.90
2022-12-28T21:47:28.936Z,7.90
2022-12-28T21:49:55.584Z,7.90
2022-12-28T21:52:22.625Z,7.90
2022-12-28T21:54:49.298Z,7.90
2022-12-28T21:57:15.964Z,7.90
2022-12-28T21:59:42.977Z,8.00
2022-12-28T22:02:31.965Z,8.00
2022-12-28T22:05:17.379Z,8.00
2022-12-28T22:07:44.171Z,8.00
2022-12-28T22:10:30.042Z,8.00
2022-12-28T22:12:56.739Z,8.00
2022-12-28T22:15:43.901Z,8.00
2022-12-28T22:21:07.393Z,8.00
2022-12-28T22:23:35.116Z,8.00
2022-12-28T22:26:02.214Z,8.00
2022-12-28T22:28:28.889Z,8.00
2022-12-28T22:30:55.713Z,8.00
2022-12-28T22:33:22.372Z,8.00
2022-12-28T22:35:49.015Z,8.00
2022-12-28T22:38:15.663Z,8.00
2022-12-28T22:40:42.300Z,8.00
2022-12-28T22:43:09.030Z,8.00
2022-12-28T22:45:35.692Z,8.00
2022-12-28T22:48:02.460Z,8.00
2022-12-28T22:50:29.508Z,7.90
2022-12-28T22:52:56.692Z,8.00
2022-12-28T22:55:23.401Z,7.90
2022-12-28T22:57:50.165Z,7.90
2022-12-28T23:00:16.874Z,8.00
2022-12-28T23:02:43.812Z,8.00
2022-12-28T23:05:10.611Z,8.00
2022-12-28T23:07:38.660Z,8.00
2022-12-28T23:10:06.542Z,8.10
2022-12-28T23:12:33.745Z,8.10
2022-12-28T23:15:15.941Z,8.00
2022-12-28T23:17:42.640Z,8.00
2022-12-28T23:20:28.655Z,8.10
2022-12-28T23:22:58.335Z,8.10
2022-12-28T23:25:43.557Z,8.10
2022-12-28T23:28:11.975Z,8.10
2022-12-28T23:30:40.243Z,8.20
2022-12-28T23:33:07.014Z,8.20
2022-12-28T23:35:33.623Z,8.20
2022-12-28T23:38:00.295Z,8.20
2022-12-28T23:40:26.947Z,8.20
2022-12-28T23:42:56.607Z,8.20
2022-12-28T23:45:23.305Z,8.20
2022-12-28T23:47:51.665Z,8.20
2022-12-28T23:50:18.325Z,8.20
2022-12-28T23:52:45.036Z,8.30
2022-12-28T23:55:11.712Z,8.30
2022-12-28T23:57:38.715Z,8.40
